Time;durP1;ratioP1;P1;durP2;ratioP2;P2;SDS_P1;SDS_P2;PMS_P1;PMS_P2;Temp;Humidity;BMP_temperature;BMP_pressure;BME280_temperature;BME280_humidity;BME280_pressure;Samples;Min_cycle;Max_cycle;Signal;HPM_P1;HPM_P2
2023/02/25 00:01:51;;;;;;;26.70;14.10;;;;;;;4.12;81.08;97908.85;106812;1264;61335;-41
2023/02/25 00:04:31;;;;;;;27.10;13.40;;;;;;;4.08;81.27;97905.77;106796;1268;61647;-41
2023/02/25 00:07:21;;;;;;;20.80;12.30;;;;;;;4.11;81.17;97901.33;106813;1264;75405;-41
2023/02/25 00:09:52;;;;;;;24.90;13.80;;;;;;;4.18;81.10;97904.70;106815;1268;69769;-41
2023/02/25 00:12:22;;;;;;;22.80;14.20;;;;;;;4.20;81.09;97907.41;106838;1264;73896;-41
2023/02/25 00:14:51;;;;;;;22.70;14.70;;;;;;;4.18;81.12;97900.95;106800;1269;61274;-41
2023/02/25 00:17:20;;;;;;;27.00;14.10;;;;;;;4.17;80.95;97901.55;106857;1264;61502;-41
2023/02/25 00:19:49;;;;;;;22.30;12.60;;;;;;;4.19;80.83;97900.96;106843;1268;74109;-41
2023/02/25 00:22:20;;;;;;;21.40;14.10;;;;;;;4.23;80.96;97892.52;106878;1268;69877;-41
2023/02/25 00:24:55;;;;;;;19.30;13.20;;;;;;;4.22;80.97;97886.06;106826;1268;73562;-41
2023/02/25 00:27:24;;;;;;;23.70;14.70;;;;;;;4.22;81.10;97894.96;106714;1264;59666;-41
2023/02/25 00:29:53;;;;;;;24.40;10.70;;;;;;;4.21;81.10;97884.98;106777;1264;59647;-41
2023/02/25 00:32:22;;;;;;;21.20;13.30;;;;;;;4.25;80.95;97887.20;106736;1264;74256;-41
2023/02/25 00:34:51;;;;;;;22.40;13.10;;;;;;;4.28;80.72;97880.38;106778;1267;69935;-41
2023/02/25 00:37:20;;;;;;;29.20;14.50;;;;;;;4.27;80.68;97881.86;106841;1269;73872;-41
2023/02/25 00:39:48;;;;;;;26.00;14.30;;;;;;;4.22;80.80;97879.48;106823;1264;60547;-41
2023/02/25 00:42:17;;;;;;;23.80;13.40;;;;;;;4.18;81.02;97879.48;106842;1264;60626;-41
2023/02/25 00:44:48;;;;;;;21.70;12.10;;;;;;;4.16;81.12;97873.23;106809;1264;72557;-41
2023/02/25 00:47:18;;;;;;;24.20;13.20;;;;;;;4.17;80.95;97870.88;106853;1267;70018;-41
2023/02/25 00:49:52;;;;;;;24.10;14.10;;;;;;;4.19;80.88;97867.33;106810;1264;73911;-41
2023/02/25 00:52:20;;;;;;;26.50;14.50;;;;;;;4.15;80.91;97864.02;106803;1264;61601;-41
2023/02/25 00:54:49;;;;;;;23.90;15.20;;;;;;;4.13;80.85;97862.04;106795;1264;61347;-42
2023/02/25 00:57:17;;;;;;;26.00;13.70;;;;;;;4.07;81.05;97861.40;106818;1263;74216;-42
2023/02/25 00:59:46;;;;;;;23.60;13.50;;;;;;;4.06;80.98;97856.70;106846;1269;70100;-41
2023/02/25 01:02:15;;;;;;;26.40;13.90;;;;;;;4.08;80.87;97850.53;106775;1269;72849;-41
2023/02/25 01:04:44;;;;;;;26.00;15.20;;;;;;;4.05;80.87;97848.03;106672;1269;61636;-42
2023/02/25 01:07:13;;;;;;;26.80;14.80;;;;;;;3.99;80.86;97847.15;106804;1268;61510;-42
2023/02/25 01:09:42;;;;;;;26.00;15.50;;;;;;;3.94;80.96;97851.11;106797;1269;73877;-41
2023/02/25 01:12:11;;;;;;;29.20;13.80;;;;;;;3.86;80.91;97829.42;106871;1269;69996;-41
2023/02/25 01:14:40;;;;;;;29.70;14.70;;;;;;;3.97;80.81;97846.64;106820;1268;73964;-41
2023/02/25 01:17:08;;;;;;;26.80;14.30;;;;;;;3.97;80.86;97840.34;106813;1264;60056;-42
2023/02/25 01:19:40;;;;;;;23.00;15.50;;;;;;;3.93;80.87;97840.82;106863;1264;61385;-42
2023/02/25 01:22:09;;;;;;;24.70;11.70;;;;;;;3.88;81.03;97838.64;106843;1264;73966;-42
2023/02/25 01:24:38;;;;;;;24.20;13.50;;;;;;;3.86;80.96;97837.77;106822;1268;69769;-41
2023/02/25 01:27:07;;;;;;;19.20;10.30;;;;;;;3.87;80.85;97831.44;106867;1269;73621;-42
2023/02/25 01:29:38;;;;;;;22.80;14.40;;;;;;;3.86;81.07;97822.30;106810;1264;61604;-42
2023/02/25 01:32:10;;;;;;;26.50;14.70;;;;;;;3.85;81.16;97820.29;106817;1264;61565;-41
2023/02/25 01:34:39;;;;;;;29.90;15.40;;;;;;;3.86;81.20;97815.17;106813;1267;74373;-42
2023/02/25 01:37:10;;;;;;;26.60;14.70;;;;;;;3.82;81.26;97812.34;106764;1264;69908;-42
2023/02/25 01:39:40;;;;;;;27.40;14.70;;;;;;;3.84;80.95;97806.39;106824;1263;73261;-42
2023/02/25 01:42:12;;;;;;;26.80;14.30;;;;;;;3.86;80.80;97806.44;106829;1263;61743;-42
2023/02/25 01:45:12;;;;;;;21.80;14.20;;;;;;;3.85;80.88;97810.94;106611;1267;61602;-42
2023/02/25 01:47:55;;;;;;;27.40;15.80;;;;;;;3.57;81.06;97770.71;106729;1269;74263;-42
2023/02/25 01:50:26;;;;;;;29.00;15.00;;;;;;;3.77;81.04;97797.16;106735;1267;68935;-42
2023/02/25 01:52:54;;;;;;;25.40;13.80;;;;;;;3.80;81.04;97798.05;106632;1264;73865;-42
2023/02/25 01:55:23;;;;;;;21.50;14.30;;;;;;;3.84;80.81;97791.94;107170;1260;60446;-42
2023/02/25 01:57:51;;;;;;;27.60;14.30;;;;;;;3.84;80.88;97786.04;106947;1258;61622;-42
2023/02/25 02:00:21;;;;;;;25.70;14.60;;;;;;;3.82;80.88;97789.83;107059;1258;74307;-42
2023/02/25 02:02:53;;;;;;;28.10;15.90;;;;;;;3.77;80.85;97782.83;107034;1257;69805;-42
2023/02/25 02:05:22;;;;;;;26.50;14.30;;;;;;;3.71;80.97;97778.64;107080;1262;70572;-41
2023/02/25 02:07:50;;;;;;;25.30;13.70;;;;;;;3.72;80.85;97778.28;107242;1257;60504;-42
2023/02/25 02:10:21;;;;;;;26.30;14.30;;;;;;;3.75;80.70;97781.34;107191;1257;61194;-42
2023/02/25 02:12:49;;;;;;;26.20;14.60;;;;;;;3.75;80.76;97777.41;107243;1257;74250;-42
2023/02/25 02:15:17;;;;;;;25.60;14.20;;;;;;;3.73;80.57;97770.72;107242;1260;70050;-42
2023/02/25 02:17:59;;;;;;;22.70;14.50;;;;;;;3.69;80.78;97761.14;107198;1257;73903;-42
2023/02/25 02:20:50;;;;;;;28.10;14.10;;;;;;;3.63;80.74;97759.41;107134;1261;62254;-42
2023/02/25 02:23:29;;;;;;;24.00;13.60;;;;;;;3.63;80.93;97759.57;106976;1258;61175;-42
2023/02/25 02:26:20;;;;;;;24.90;15.10;;;;;;;3.64;80.87;97755.83;107209;1257;74373;-42
2023/02/25 02:29:25;;;;;;;25.30;15.00;;;;;;;3.62;80.87;97748.52;107066;1257;68834;-42
2023/02/25 02:32:14;;;;;;;25.50;15.60;;;;;;;3.60;81.00;97744.04;107110;1263;73720;-41
2023/02/25 02:34:58;;;;;;;26.30;14.80;;;;;;;3.59;80.89;97745.23;107204;1258;62429;-40
2023/02/25 02:37:37;;;;;;;27.30;14.00;;;;;;;3.64;80.75;97739.90;107260;1261;61412;-40
2023/02/25 02:40:21;;;;;;;29.20;14.70;;;;;;;3.67;80.30;97744.79;107296;1256;74150;-41
2023/02/25 02:43:27;;;;;;;29.50;14.90;;;;;;;3.67;80.32;97737.14;107260;1257;67728;-40
2023/02/25 02:46:22;;;;;;;31.90;15.90;;;;;;;3.64;80.34;97737.54;106589;1266;73761;-41
2023/02/25 02:49:02;;;;;;;29.60;16.50;;;;;;;3.60;80.23;97738.15;107026;1257;59963;-40
2023/02/25 02:51:35;;;;;;;29.70;15.00;;;;;;;3.55;80.20;97735.21;107180;1257;61418;-41
2023/02/25 02:54:05;;;;;;;32.00;14.60;;;;;;;3.57;80.17;97739.86;107051;1257;74329;-41
2023/02/25 02:56:38;;;;;;;24.80;14.30;;;;;;;3.60;79.99;97734.23;107061;1257;67725;-40
2023/02/25 02:59:11;;;;;;;32.10;16.20;;;;;;;3.60;80.21;97739.67;107167;1257;72498;-41
2023/02/25 03:01:45;;;;;;;26.70;16.10;;;;;;;3.60;80.25;97743.20;106963;1257;60612;-41
2023/02/25 03:04:16;;;;;;;27.80;16.40;;;;;;;3.56;80.07;97744.71;106963;1258;61506;-42
2023/02/25 03:06:48;;;;;;;28.70;15.60;;;;;;;3.46;80.21;97736.56;107204;1258;74002;-41
2023/02/25 03:09:22;;;;;;;25.20;15.00;;;;;;;3.47;80.13;97725.55;107079;1257;68547;-41
2023/02/25 03:11:54;;;;;;;29.80;15.40;;;;;;;3.56;80.00;97728.58;107044;1263;73809;-41
2023/02/25 03:14:23;;;;;;;23.90;15.20;;;;;;;3.54;79.91;97724.32;107286;1257;60523;-41
2023/02/25 03:17:12;;;;;;;25.50;15.30;;;;;;;3.50;80.19;97722.56;107133;1257;61618;-40
2023/02/25 03:19:57;;;;;;;27.50;16.40;;;;;;;3.45;80.16;97715.89;107066;1258;74150;-40
2023/02/25 03:22:28;;;;;;;26.60;16.20;;;;;;;3.43;80.22;97718.66;107198;1258;68185;-40
2023/02/25 03:25:22;;;;;;;31.30;16.00;;;;;;;3.47;80.05;97712.39;107193;1262;73914;-40
2023/02/25 03:27:52;;;;;;;22.90;14.60;;;;;;;3.50;79.73;97711.06;107190;1257;61610;-41
2023/02/25 03:30:41;;;;;;;25.90;15.40;;;;;;;3.45;79.94;97714.02;107192;1257;61067;-40
2023/02/25 03:33:36;;;;;;;27.20;16.20;;;;;;;3.40;80.06;97713.33;107173;1258;75037;-41
2023/02/25 03:36:11;;;;;;;29.20;16.50;;;;;;;3.36;80.38;97707.27;107240;1257;69744;-40
2023/02/25 03:38:42;;;;;;;29.30;16.40;;;;;;;3.32;80.48;97706.96;107219;1258;73492;-40
2023/02/25 03:41:14;;;;;;;27.50;15.70;;;;;;;3.34;80.13;97706.39;107050;1257;62445;-41
2023/02/25 03:43:52;;;;;;;25.00;15.60;;;;;;;3.38;80.07;97702.42;107093;1257;61563;-40
2023/02/25 03:46:21;;;;;;;26.80;16.50;;;;;;;3.40;80.12;97697.70;107082;1257;74764;-41
2023/02/25 03:48:51;;;;;;;28.80;17.10;;;;;;;3.38;80.22;97691.31;107113;1257;68229;-40
2023/02/25 03:51:22;;;;;;;28.20;17.90;;;;;;;3.40;80.23;97678.88;107100;1258;73939;-40
2023/02/25 03:53:51;;;;;;;32.30;16.80;;;;;;;3.42;79.92;97676.33;106347;1257;1003101;-40
2023/02/25 03:56:25;;;;;;;26.90;16.10;;;;;;;3.46;79.64;97678.79;107203;1258;61426;-41
2023/02/25 03:58:54;;;;;;;25.50;16.10;;;;;;;3.51;79.37;97684.09;107019;1258;75070;-41
2023/02/25 04:01:25;;;;;;;27.70;16.90;;;;;;;3.54;79.34;97675.34;107133;1263;67927;-41
2023/02/25 04:03:54;;;;;;;26.80;17.20;;;;;;;3.51;79.20;97676.20;107093;1261;73251;-41
2023/02/25 04:06:24;;;;;;;;;;;;;;;3.49;79.07;97670.63;107156;1261;60565;-40
2023/02/25 04:08:53;;;;;;;28.80;17.80;;;;;;;3.40;79.23;97668.79;107167;1260;60407;-40
2023/02/25 04:11:22;;;;;;;20.70;12.70;;;;;;;3.33;79.45;97662.91;107107;1260;74707;-40
2023/02/25 04:13:52;;;;;;;23.90;16.00;;;;;;;3.37;79.10;97658.77;107108;1260;69803;-41
2023/02/25 04:16:21;;;;;;;28.60;16.80;;;;;;;3.41;78.86;97650.20;107108;1261;73964;-40
2023/02/25 04:18:54;;;;;;;27.20;17.10;;;;;;;3.41;78.98;97652.42;107123;1260;61542;-40
2023/02/25 04:21:34;;;;;;;32.60;18.10;;;;;;;3.37;79.18;97652.88;107161;1260;61544;-40
2023/02/25 04:24:05;;;;;;;25.90;14.70;;;;;;;3.31;79.18;97645.64;107095;1259;74732;-41
2023/02/25 04:26:34;;;;;;;28.50;18.00;;;;;;;3.25;79.36;97632.13;107215;1260;68009;-40
2023/02/25 04:29:02;;;;;;;26.10;16.70;;;;;;;3.25;79.58;97624.17;107162;1261;73472;-41
2023/02/25 04:31:33;;;;;;;27.30;17.60;;;;;;;3.28;79.50;97623.93;107202;1260;60479;-41
2023/02/25 04:34:02;;;;;;;32.20;18.70;;;;;;;3.24;79.78;97622.71;107175;1260;60273;-40
2023/02/25 04:36:32;;;;;;;34.00;19.80;;;;;;;3.20;80.04;97627.75;107146;1262;75051;-41
2023/02/25 04:39:03;;;;;;;32.90;20.20;;;;;;;3.17;80.16;97622.02;107177;1260;67040;-41
2023/02/25 04:41:32;;;;;;;35.20;19.10;;;;;;;3.16;80.54;97620.88;107140;1261;73842;-40
2023/02/25 04:44:04;;;;;;;28.00;18.30;;;;;;;3.16;80.36;97623.38;107191;1258;62425;-40
2023/02/25 04:46:37;;;;;;;28.00;18.80;;;;;;;3.22;80.55;97630.63;107160;1260;61522;-41
2023/02/25 04:49:06;;;;;;;34.90;21.20;;;;;;;3.18;80.70;97632.45;107197;1260;74804;-41
2023/02/25 04:51:35;;;;;;;32.10;21.50;;;;;;;3.13;81.16;97635.27;107154;1261;70071;-41
2023/02/25 04:54:04;;;;;;;35.00;21.60;;;;;;;3.10;81.37;97633.82;107165;1257;72861;-41
2023/02/25 04:56:34;;;;;;;25.70;16.20;;;;;;;3.08;81.56;97628.58;107216;1260;60562;-41
2023/02/25 04:59:04;;;;;;;31.70;20.70;;;;;;;3.12;81.65;97629.51;107218;1257;61265;-41
2023/02/25 05:01:32;;;;;;;32.70;18.50;;;;;;;3.11;81.62;97632.69;107157;1260;74170;-40
2023/02/25 05:04:01;;;;;;;34.80;21.00;;;;;;;3.07;82.10;97633.78;107084;1257;68972;-41
2023/02/25 05:06:30;;;;;;;43.10;23.30;;;;;;;3.02;82.27;97629.08;107077;1257;73719;-41
2023/02/25 05:08:59;;;;;;;32.30;22.20;;;;;;;2.99;82.36;97633.23;107106;1257;62410;-40
2023/02/25 05:11:29;;;;;;;32.40;20.40;;;;;;;2.99;82.61;97647.77;107162;1257;61729;-40
2023/02/25 05:13:58;;;;;;;35.20;21.00;;;;;;;3.01;82.54;97644.36;107211;1257;73975;-41
2023/02/25 05:16:26;;;;;;;34.20;22.30;;;;;;;2.99;83.05;97636.69;107042;1257;70206;-41
2023/02/25 05:18:56;;;;;;;30.70;19.20;;;;;;;2.95;83.25;97634.84;107103;1261;73212;-40
2023/02/25 05:21:25;;;;;;;37.50;24.10;;;;;;;2.94;83.43;97634.88;107204;1262;60712;-41
2023/02/25 05:23:54;;;;;;;36.60;24.80;;;;;;;2.92;83.93;97635.20;107281;1257;60541;-41
2023/02/25 05:26:23;;;;;;;38.20;22.60;;;;;;;2.95;84.05;97625.34;107246;1257;75044;-41
2023/02/25 05:28:54;;;;;;;33.30;21.70;;;;;;;3.03;83.97;97618.70;107283;1257;68211;-42
2023/02/25 05:31:23;;;;;;;37.10;24.10;;;;;;;3.09;84.03;97617.66;107199;1257;72346;-41
2023/02/25 05:33:52;;;;;;;35.00;24.20;;;;;;;3.12;84.39;97607.34;107236;1257;60470;-41
2023/02/25 05:36:21;;;;;;;37.40;23.80;;;;;;;3.14;84.46;97602.86;107234;1257;60399;-42
2023/02/25 05:39:01;;;;;;;31.50;23.20;;;;;;;3.14;84.42;97599.80;107255;1257;71788;-42
2023/02/25 05:41:31;;;;;;;37.50;23.80;;;;;;;3.29;84.21;97606.05;107177;1260;69922;-41
2023/02/25 05:44:00;;;;;;;39.50;25.00;;;;;;;3.33;84.17;97603.98;107222;1257;73936;-41
2023/02/25 05:46:29;;;;;;;39.40;26.10;;;;;;;3.31;84.15;97595.60;107191;1257;59612;-41
2023/02/25 05:48:57;;;;;;;39.10;26.00;;;;;;;3.30;84.32;97594.20;107228;1257;61204;-41
2023/02/25 05:51:26;;;;;;;42.00;24.90;;;;;;;3.33;84.28;97593.41;107203;1262;75059;-41
2023/02/25 05:53:56;;;;;;;47.70;26.90;;;;;;;3.39;84.31;97585.44;107247;1257;67854;-41
2023/02/25 05:56:26;;;;;;;45.00;25.80;;;;;;;3.44;84.39;97589.35;107164;1261;72833;-41
2023/02/25 05:58:58;;;;;;;46.90;28.90;;;;;;;3.42;84.39;97593.05;107083;1257;60544;-41
2023/02/25 06:01:28;;;;;;;43.20;25.90;;;;;;;3.41;84.68;97586.36;106387;1257;1016411;-41
2023/02/25 06:03:57;;;;;;;41.50;25.80;;;;;;;3.44;84.62;97573.35;107067;1257;74744;-41
2023/02/25 06:06:27;;;;;;;;;;;;;;;3.51;84.65;97566.12;107184;1257;69514;-41
2023/02/25 06:08:56;;;;;;;45.40;28.30;;;;;;;3.48;84.73;97573.95;107203;1257;71742;-41
2023/02/25 06:11:26;;;;;;;42.90;27.30;;;;;;;3.45;85.23;97583.46;107192;1257;60473;-41
2023/02/25 06:13:55;;;;;;;43.10;26.90;;;;;;;3.46;85.25;97580.65;106388;1257;1002876;-41
2023/02/25 06:16:30;;;;;;;41.80;26.80;;;;;;;3.53;85.11;97587.52;107231;1257;74296;-41
2023/02/25 06:19:01;;;;;;;40.90;26.40;;;;;;;3.60;84.88;97584.11;107223;1257;69029;-41
2023/02/25 06:21:32;;;;;;;41.30;26.50;;;;;;;3.51;84.98;97560.84;107121;1257;71714;-41
2023/02/25 06:24:01;;;;;;;43.00;27.10;;;;;;;3.60;85.09;97576.31;107216;1257;60351;-41
2023/02/25 06:26:34;;;;;;;40.80;24.00;;;;;;;3.67;85.11;97578.48;107184;1257;61041;-41
2023/02/25 06:29:02;;;;;;;39.50;24.70;;;;;;;3.77;84.96;97571.62;107211;1257;74669;-41
2023/02/25 06:31:33;;;;;;;40.90;26.60;;;;;;;3.83;84.83;97560.77;107220;1261;69625;-41
2023/02/25 06:34:02;;;;;;;38.30;26.00;;;;;;;3.88;84.81;97551.21;107215;1262;73852;-41
2023/02/25 06:36:31;;;;;;;37.30;24.90;;;;;;;3.94;84.69;97547.45;107191;1257;62411;-41
2023/02/25 06:38:59;;;;;;;36.50;23.40;;;;;;;4.05;84.50;97541.66;107150;1257;61553;-40
2023/02/25 06:41:28;;;;;;;39.00;24.30;;;;;;;4.16;84.10;97535.46;107234;1257;74968;-41
2023/02/25 06:43:58;;;;;;;38.40;24.90;;;;;;;4.22;83.87;97534.94;107205;1257;69662;-41
2023/02/25 06:46:26;;;;;;;41.20;25.50;;;;;;;4.26;83.52;97538.58;107179;1257;73755;-41
2023/02/25 06:48:56;;;;;;;37.20;24.90;;;;;;;4.26;83.20;97536.91;107252;1257;60906;-41
2023/02/25 06:51:25;;;;;;;36.40;24.40;;;;;;;4.25;83.22;97531.16;107248;1257;60388;-41
2023/02/25 06:53:53;;;;;;;33.70;23.30;;;;;;;4.28;83.22;97524.44;107246;1257;75067;-40
2023/02/25 06:56:22;;;;;;;35.70;24.10;;;;;;;4.34;82.85;97519.85;107226;1258;68944;-41
2023/02/25 06:58:52;;;;;;;37.00;24.90;;;;;;;4.36;82.80;97513.58;107168;1257;71642;-41
2023/02/25 07:01:20;;;;;;;37.70;26.30;;;;;;;4.35;82.98;97508.06;107052;1257;61552;-40
2023/02/25 07:03:49;;;;;;;37.10;23.70;;;;;;;4.33;83.23;97508.35;107052;1257;61591;-40
2023/02/25 07:06:18;;;;;;;35.10;23.40;;;;;;;4.40;83.26;97505.67;107117;1257;75073;-40
2023/02/25 07:08:46;;;;;;;36.30;25.20;;;;;;;4.52;82.99;97509.96;107270;1257;70093;-40
2023/02/25 07:11:16;;;;;;;;;;;;;;;4.57;82.72;97514.16;107131;1257;74836;-41
2023/02/25 07:13:46;;;;;;;40.50;26.20;;;;;;;4.52;82.84;97502.69;107221;1257;61286;-41
2023/02/25 07:16:15;;;;;;;38.60;25.40;;;;;;;4.50;83.17;97496.92;107173;1257;61489;-40
2023/02/25 07:18:49;;;;;;;38.30;23.70;;;;;;;4.49;82.88;97486.08;107146;1257;75060;-41
2023/02/25 07:21:19;;;;;;;38.60;25.80;;;;;;;4.63;82.84;97491.86;107302;1257;69645;-41
2023/02/25 07:23:47;;;;;;;44.20;27.40;;;;;;;4.66;82.91;97488.06;107232;1257;73513;-41
2023/02/25 07:26:16;;;;;;;45.50;27.10;;;;;;;4.69;82.85;97479.80;107215;1257;60357;-40
2023/02/25 07:28:47;;;;;;;36.10;24.70;;;;;;;4.74;83.24;97478.25;107185;1257;60463;-41
2023/02/25 07:31:17;;;;;;;40.10;25.40;;;;;;;4.87;83.12;97473.48;107264;1257;71933;-40
2023/02/25 07:33:50;;;;;;;37.40;24.70;;;;;;;4.99;82.30;97468.33;107197;1260;69897;-41
2023/02/25 07:36:19;;;;;;;39.90;26.40;;;;;;;5.05;82.21;97470.77;107209;1257;73902;-40
2023/02/25 07:38:47;;;;;;;43.40;27.80;;;;;;;5.10;82.26;97459.91;107240;1257;61696;-40
2023/02/25 07:41:17;;;;;;;41.40;27.30;;;;;;;5.15;81.97;97457.45;107236;1257;61533;-41
2023/02/25 07:43:46;;;;;;;38.70;26.00;;;;;;;5.28;81.70;97458.47;107238;1260;74717;-41
2023/02/25 07:46:18;;;;;;;41.60;27.80;;;;;;;5.40;81.23;97445.61;107201;1257;69731;-41
2023/02/25 07:48:47;;;;;;;41.10;28.70;;;;;;;5.48;80.63;97445.52;107211;1257;72155;-40
2023/02/25 07:51:18;;;;;;;43.80;28.40;;;;;;;5.54;80.90;97442.19;107241;1257;60447;-41
2023/02/25 07:53:49;;;;;;;43.60;27.70;;;;;;;5.65;80.46;97443.89;107200;1257;61293;-41
2023/02/25 07:56:19;;;;;;;40.70;28.30;;;;;;;5.70;79.70;97430.62;107225;1258;71517;-41
2023/02/25 07:58:48;;;;;;;43.40;28.70;;;;;;;5.88;79.27;97448.05;107280;1257;69683;-41
2023/02/25 08:01:27;;;;;;;47.10;29.60;;;;;;;5.93;78.99;97446.48;107210;1257;72991;-41
2023/02/25 08:03:58;;;;;;;44.40;28.10;;;;;;;6.00;79.03;97448.29;107085;1257;60897;-40
2023/02/25 08:06:26;;;;;;;;;;;;;;;6.09;78.32;97444.19;107165;1257;61039;-41
2023/02/25 08:08:55;;;;;;;48.50;29.20;;;;;;;6.18;78.64;97439.08;107112;1257;75056;-41
2023/02/25 08:11:24;;;;;;;42.70;29.30;;;;;;;6.31;78.74;97437.62;107122;1257;69524;-41
2023/02/25 08:13:53;;;;;;;48.80;30.40;;;;;;;6.46;77.68;97432.46;107252;1257;72680;-41
2023/02/25 08:16:22;;;;;;;47.30;30.20;;;;;;;6.57;77.04;97423.88;107126;1257;61572;-41
2023/02/25 08:18:52;;;;;;;42.90;29.30;;;;;;;6.69;76.61;97415.21;106408;1257;1002922;-41
2023/02/25 08:21:22;;;;;;;44.30;29.10;;;;;;;6.84;75.38;97417.33;107123;1257;74891;-41
2023/02/25 08:23:51;;;;;;;43.00;29.90;;;;;;;6.87;74.72;97415.80;107262;1257;68568;-41
2023/02/25 08:26:21;;;;;;;44.70;28.90;;;;;;;6.79;75.17;97393.94;107174;1257;73877;-41
2023/02/25 08:28:50;;;;;;;48.20;31.50;;;;;;;6.89;75.27;97405.42;107212;1257;60992;-41
2023/02/25 08:31:18;;;;;;;45.60;28.60;;;;;;;6.98;75.48;97404.36;107219;1257;61542;-40
2023/02/25 08:33:48;;;;;;;48.10;29.20;;;;;;;7.15;74.62;97398.98;107239;1258;74741;-42
2023/02/25 08:36:25;;;;;;;45.10;30.90;;;;;;;7.24;73.53;97399.38;107263;1257;69873;-41
2023/02/25 08:38:55;;;;;;;47.00;32.30;;;;;;;7.23;73.07;97398.21;107256;1257;73607;-42
2023/02/25 08:41:25;;;;;;;45.00;30.00;;;;;;;7.24;73.22;97389.75;107255;1257;61206;-41
2023/02/25 08:43:54;;;;;;;43.90;28.80;;;;;;;7.31;72.73;97383.52;107258;1257;59996;-44
2023/02/25 08:46:27;;;;;;;46.50;30.20;;;;;;;7.44;72.47;97373.73;107266;1257;75027;-41
2023/02/25 08:48:56;;;;;;;44.20;30.10;;;;;;;7.52;72.59;97375.50;107242;1257;69939;-39
2023/02/25 08:51:32;;;;;;;41.70;30.20;;;;;;;7.59;71.91;97373.63;107200;1257;73722;-40
2023/02/25 08:54:06;;;;;;;46.30;29.40;;;;;;;7.63;71.23;97374.71;107300;1256;61660;-40
2023/02/25 08:56:35;;;;;;;43.50;28.50;;;;;;;7.69;71.95;97369.00;107296;1257;60348;-41
2023/02/25 08:59:04;;;;;;;43.90;28.90;;;;;;;7.87;71.74;97366.64;107269;1257;75039;-40
2023/02/25 09:01:44;;;;;;;43.30;29.50;;;;;;;8.03;70.90;97362.35;107316;1256;69943;-41
2023/02/25 09:04:18;;;;;;;48.20;31.60;;;;;;;8.16;69.97;97360.38;107694;1254;73998;-40
2023/02/25 09:06:46;;;;;;;43.30;29.60;;;;;;;8.17;69.46;97347.19;107706;1254;61135;-41
2023/02/25 09:09:15;;;;;;;49.80;31.40;;;;;;;8.12;69.02;97345.05;107770;1253;61186;-40
2023/02/25 09:11:44;;;;;;;49.20;29.20;;;;;;;8.05;69.15;97343.30;107735;1254;74939;-40
2023/02/25 09:14:15;;;;;;;41.80;28.80;;;;;;;8.05;69.36;97339.13;107709;1254;69564;-40
2023/02/25 09:16:45;;;;;;;41.00;29.90;;;;;;;8.08;69.54;97331.03;107699;1253;73739;-40
2023/02/25 09:19:16;;;;;;;41.60;29.40;;;;;;;8.16;70.00;97326.76;107677;1253;60564;-40
2023/02/25 09:21:46;;;;;;;41.30;29.50;;;;;;;8.31;69.63;97315.29;107729;1253;61204;-41
2023/02/25 09:24:16;;;;;;;48.80;28.60;;;;;;;8.50;68.95;97306.88;107666;1253;75157;-41
2023/02/25 09:26:45;;;;;;;40.70;27.30;;;;;;;8.67;68.38;97303.59;107741;1254;69714;-40
2023/02/25 09:29:13;;;;;;;39.00;27.90;;;;;;;8.89;68.10;97296.10;107709;1253;71662;-40
2023/02/25 09:31:42;;;;;;;39.00;26.40;;;;;;;9.09;66.64;97292.54;107709;1254;61568;-40
2023/02/25 09:34:14;;;;;;;39.90;27.20;;;;;;;9.25;66.63;97287.83;107740;1254;60411;-40
2023/02/25 09:36:42;;;;;;;40.70;26.90;;;;;;;9.40;65.85;97291.63;107703;1254;74046;-41
2023/02/25 09:39:11;;;;;;;37.40;26.90;;;;;;;9.50;65.48;97290.92;107689;1256;69810;-41
2023/02/25 09:41:49;;;;;;;36.00;25.60;;;;;;;9.59;65.12;97283.64;107654;1254;73869;-41
2023/02/25 09:44:27;;;;;;;37.50;25.30;;;;;;;9.73;65.26;97277.76;107642;1253;61679;-41
2023/02/25 09:47:15;;;;;;;34.70;23.90;;;;;;;9.89;64.58;97275.73;107675;1254;61539;-41
2023/02/25 09:49:48;;;;;;;32.80;23.40;;;;;;;10.09;63.85;97269.98;107585;1253;74022;-41
2023/02/25 09:52:23;;;;;;;31.70;23.90;;;;;;;10.22;63.27;97261.86;107380;1254;69947;-41
2023/02/25 09:54:54;;;;;;;35.30;23.60;;;;;;;10.38;63.25;97256.15;107547;1254;73731;-41
2023/02/25 09:57:23;;;;;;;33.80;24.00;;;;;;;10.54;62.66;97250.20;107628;1254;60456;-41
2023/02/25 09:59:52;;;;;;;32.80;24.40;;;;;;;10.70;62.31;97246.39;107660;1254;61443;-41
2023/02/25 10:02:26;;;;;;;35.00;25.30;;;;;;;10.82;61.04;97245.80;107621;1254;73681;-41
2023/02/25 10:05:10;;;;;;;33.10;22.80;;;;;;;10.87;61.64;97236.66;107710;1252;69845;-41
2023/02/25 10:07:47;;;;;;;29.40;21.80;;;;;;;10.97;61.47;97232.09;106890;1254;1003067;-41
2023/02/25 10:10:22;;;;;;;32.10;23.30;;;;;;;11.07;60.78;97225.34;107656;1256;61576;-41
2023/02/25 10:13:09;;;;;;;31.00;21.80;;;;;;;11.16;60.83;97213.63;107496;1254;60348;-41
2023/02/25 10:16:00;;;;;;;27.50;21.20;;;;;;;11.29;60.68;97207.13;107660;1253;74747;-41
2023/02/25 10:18:42;;;;;;;31.90;21.50;;;;;;;11.36;59.88;97206.75;107682;1252;70293;-41
2023/02/25 10:21:14;;;;;;;29.30;21.30;;;;;;;11.36;60.33;97195.75;107707;1254;73354;-41
2023/02/25 10:23:49;;;;;;;30.60;21.70;;;;;;;11.38;60.16;97179.42;107694;1256;60405;-41
2023/02/25 10:26:23;;;;;;;30.70;21.70;;;;;;;11.44;59.96;97173.20;107643;1253;61429;-41
2023/02/25 10:28:58;;;;;;;27.60;20.60;;;;;;;11.44;59.40;97171.01;107673;1253;74680;-41
2023/02/25 10:31:28;;;;;;;26.50;20.60;;;;;;;11.42;59.47;97157.81;107527;1254;68507;-42
2023/02/25 10:33:59;;;;;;;29.50;20.80;;;;;;;11.44;59.49;97158.54;107687;1254;74336;-41
2023/02/25 10:36:33;;;;;;;31.00;21.40;;;;;;;11.40;59.07;97162.27;107719;1253;60396;-42
2023/02/25 10:39:03;;;;;;;29.40;20.40;;;;;;;11.28;59.69;97153.58;107351;1252;61406;-42
2023/02/25 10:41:31;;;;;;;29.10;20.30;;;;;;;11.13;60.01;97148.67;107639;1253;74749;-41
2023/02/25 10:44:00;;;;;;;26.50;18.30;;;;;;;10.90;59.96;97147.00;107508;1254;69840;-42
2023/02/25 10:46:33;;;;;;;29.10;19.70;;;;;;;10.67;60.77;97140.27;107641;1253;73909;-42
2023/02/25 10:49:24;;;;;;;30.40;17.80;;;;;;;10.51;61.95;97140.24;107662;1253;61965;-42
2023/02/25 10:52:17;;;;;;;25.10;17.90;;;;;;;10.46;62.05;97134.05;107646;1253;60436;-42
2023/02/25 10:54:51;;;;;;;23.70;17.50;;;;;;;10.45;62.30;97134.55;107626;1254;74976;-42
2023/02/25 10:57:27;;;;;;;22.50;17.20;;;;;;;10.46;62.49;97127.25;107643;1253;68997;-41
2023/02/25 11:00:12;;;;;;;23.20;17.40;;;;;;;10.51;62.71;97132.67;107547;1254;73812;-41
2023/02/25 11:02:42;;;;;;;26.00;19.00;;;;;;;10.54;62.23;97129.05;107530;1254;61758;-41
2023/02/25 11:05:30;;;;;;;25.20;17.90;;;;;;;10.51;62.12;97131.50;107611;1253;61543;-41
2023/02/25 11:07:58;;;;;;;25.30;18.30;;;;;;;10.42;62.39;97109.05;107566;1253;74933;-40
2023/02/25 11:13:29;;;;;;;26.10;17.50;;;;;;;10.42;62.36;97121.75;104268;1291;600998;-40
2023/02/25 11:15:58;;;;;;;23.00;18.10;;;;;;;10.32;62.54;97114.79;106656;1266;60366;-41
2023/02/25 11:18:31;;;;;;;26.90;18.40;;;;;;;10.21;63.05;97120.99;106686;1267;60133;-41
2023/02/25 11:21:11;;;;;;;27.40;18.00;;;;;;;10.15;63.70;97112.73;106647;1266;73461;-41
2023/02/25 11:23:40;;;;;;;23.30;18.20;;;;;;;10.12;63.90;97107.98;106570;1267;70011;-41
2023/02/25 11:26:32;;;;;;;22.50;17.20;;;;;;;10.11;63.84;97101.64;106600;1264;186918;-41
2023/02/25 11:29:09;;;;;;;23.20;16.70;;;;;;;10.05;63.75;97098.86;106690;1264;62128;-41
2023/02/25 11:31:39;;;;;;;23.50;16.30;;;;;;;10.08;64.10;97096.27;106889;1267;61387;-41
2023/02/25 11:34:27;;;;;;;25.10;17.30;;;;;;;10.12;64.28;97089.16;106860;1263;71321;-41
2023/02/25 11:36:58;;;;;;;25.40;18.40;;;;;;;10.14;64.26;97092.70;106772;1264;70040;-41
2023/02/25 11:39:30;;;;;;;27.00;18.90;;;;;;;10.11;64.48;97085.95;106865;1263;73842;-41
2023/02/25 11:42:25;;;;;;;29.10;18.90;;;;;;;10.06;64.88;97078.20;106845;1263;61014;-41
2023/02/25 11:45:03;;;;;;;26.60;18.80;;;;;;;10.00;65.03;97074.49;106798;1264;61395;-41